Zaandam — PDAN — position and weather

sailwx.info

Track history (hours):
 
Tides and Currents Weather Stations Pressure Air Temp Water Temp Dewpoint Dewpoint Depression Visibility Wind Speed Wind Dir Waves Ship Positions

Zaandam

Operator: Holland America Line

Last reported at 2018-Aug-16 15:00 UTC. Time now 2018-Aug-16 20:16 UTC.
Position N 57°06' W 134°00'.

Type: Passenger vessel. MMSI: 246442000.

Wind from 190 at 5 knots

Barometer 1018.9 mb
Air temperature 10.0 ° C
Visibility: greater than 10.8 NM
Dewpoint 7.9 ° C
Water temperature 10.0 ° C

Date/timePositionNaut miles runAvg speedWind from/ knotsBaromVisibWave heightAir tempDewpointWater temp
2018-Aug-16 15:00N 57°06' W 134°00'3812.8 190 / 51018.910.8 10.0 7.910.0
2018-Aug-16 12:00N 56°30' W 134°24'10710.7 100 / 31018.510.8 11.510.510.0
2018-Aug-16 02:00N 55°24' W 131°54'1211.9 300 / 281016.610.8 17.0 15.0
2018-Aug-16 01:00N 55°18' W 131°36'16 1.4 320 / 201016.710.8 18.0 14.0
2018-Aug-15 13:52N 55°10' W 131°12'1112.6
2018-Aug-15 13:00N 55°00' W 131°06'325.9 340 / 171017.510.8 13.0 15.0
2018-Aug-15 12:52N 54°57' W 131°08'615.9
2018-Aug-15 12:29N 54°51' W 131°09'918.6
2018-Aug-15 12:00N 54°42' W 131°12'140.8 350 / 121017.310.8 12.9 13.0
2018-Aug-15 11:58N 54°43' W 131°13'715.0
2018-Aug-15 11:30N 54°36' W 131°15'714.9
2018-Aug-15 11:00N 54°29' W 131°12'5343.1
2018-Aug-15 11:00N 54°24' W 131°12'3 7.0 330 / 181017.310.8 12.4 13.0
2018-Aug-15 10:30N 54°23' W 131°06'713.4
2018-Aug-15 10:00N 54°17' W 131°02'296.7
2018-Aug-15 10:00N 54°18' W 131°00'816.5 300 / 231017.110.8 12.3 13.0
2018-Aug-15 09:30N 54°10' W 131°01'714.2
2018-Aug-15 09:00N 54°03' W 131°01'3215.1
2018-Aug-15 09:00N 54°00' W 131°00'4 8.9 300 / 261017.010.8 12.6 13.0
2018-Aug-15 08:31N 53°56' W 130°58'714.7
2018-Aug-15 08:00N 53°49' W 130°56'196.9
2018-Aug-15 08:00N 53°48' W 130°54'714.0 310 / 241017.310.8 13.4 13.0
2018-Aug-15 07:30N 53°41' W 130°54'917.6
2018-Aug-15 07:00N 53°32' W 130°52'917.4
2018-Aug-15 06:30N 53°24' W 130°49'917.5
2018-Aug-15 06:00N 53°16' W 130°44'917.1
2018-Aug-15 05:28N 53°07' W 130°39'7717.1
2018-Aug-15 01:00N 51°54' W 130°00'1416.1 270 / 251015.710.8 16.0 15.0
2018-Aug-15 00:07N 51°40' W 129°55'216.9
2018-Aug-15 00:01N 51°38' W 129°54'2144.5
2018-Aug-15 00:00N 51°36' W 129°54'613.0 280 / 231016.7 5.4 17.0 15.0
2018-Aug-14 23:31N 51°30' W 129°50'816.7
2018-Aug-14 23:00N 51°22' W 129°46'816.6
2018-Aug-14 22:30N 51°14' W 129°43'816.6
2018-Aug-14 22:00N 51°06' W 129°40'816.8
2018-Aug-14 21:31N 50°58' W 129°34'816.8
2018-Aug-14 21:01N 50°50' W 129°31'816.5
2018-Aug-14 20:30N 50°43' W 129°25'816.6
2018-Aug-14 20:00N 50°37' W 129°16'3220.2
2018-Aug-14 20:00N 50°36' W 129°12'612.1 340 / 251018.3 14.513.614.0
2018-Aug-14 19:31N 50°31' W 129°07'816.7
2018-Aug-14 19:01N 50°25' W 128°57'3152.1
2018-Aug-14 19:00N 50°24' W 128°54'612.1 350 / 261017.810.8 13.9 16.0
2018-Aug-14 18:30N 50°19' W 128°48'816.3
2018-Aug-14 18:00N 50°14' W 128°39'3167.1
2018-Aug-14 18:00N 50°12' W 128°36'611.3 340 / 291016.4 5.4 13.0 16.0
2018-Aug-14 17:30N 50°08' W 128°30'816.7
2018-Aug-14 17:00N 50°02' W 128°21'3206.2
2018-Aug-14 17:00N 50°00' W 128°24'916.9 340 / 351015.7 1.1 12.6 13.0
2018-Aug-14 16:27N 49°56' W 128°11'1123.4
2018-Aug-14 16:00N 49°48' W 128°00'321.5 320 / 321015.6 2.2 15.0 15.0
2018-Aug-14 15:52N 49°51' W 127°59'1416.0
2018-Aug-14 15:00N 49°42' W 127°42'2019.6 330 / 401014.6 5.4 15.0 15.0
2018-Aug-14 14:00N 49°30' W 127°18'413.6 320 / 221013.710.8 17.0 15.0
2018-Aug-14 13:41N 49°29' W 127°11'318.0
2018-Aug-14 13:30N 49°27' W 127°08'917.7
2018-Aug-14 13:00N 49°20' W 126°59'4270.4
2018-Aug-14 13:00N 49°18' W 126°54'5 9.7 320 / 211013.710.8 17.0 15.0
2018-Aug-14 12:30N 49°14' W 126°51'917.5
2018-Aug-14 12:00N 49°08' W 126°41'2161.0
2018-Aug-14 12:00N 49°06' W 126°42'918.4 330 / 181013.810.8 17.0 11.0
2018-Aug-14 11:31N 49°03' W 126°30'917.6
2018-Aug-14 11:00N 48°57' W 126°19'3214.3
2018-Aug-14 11:00N 48°54' W 126°18'714.4 330 / 191014.210.8 15.5 13.0
2018-Aug-14 10:31N 48°52' W 126°08'918.7
2018-Aug-14 10:01N 48°47' W 125°56'5283.1
2018-Aug-14 10:00N 48°42' W 125°54'713.5 320 / 131014.510.8 14.9 13.0
2018-Aug-14 09:30N 48°42' W 125°44'919.0
2018-Aug-14 09:00N 48°37' W 125°32'3188.7
2018-Aug-14 09:00N 48°36' W 125°36'1223.9 330 / 161014.610.8 14.1 13.0
2018-Aug-14 08:31N 48°32' W 125°20'1019.3
2018-Aug-14 08:00N 48°31' W 125°05'195.2
2018-Aug-14 08:00N 48°30' W 125°06'1122.1 310 / 91014.710.8 15.1 13.0
2018-Aug-14 07:30N 48°31' W 124°50'1019.7
2018-Aug-14 07:01N 48°29' W 124°36'1019.8
2018-Aug-14 06:31N 48°25' W 124°22'1020.0
2018-Aug-14 06:00N 48°21' W 124°08'1019.8
2018-Aug-14 05:30N 48°18' W 123°54'1019.9
2018-Aug-14 05:01N 48°16' W 123°39'918.7
2018-Aug-14 04:30N 48°13' W 123°26'612.1
2018-Aug-14 04:00N 48°09' W 123°18'1018.4
2018-Aug-14 03:28N 48°13' W 123°05'918.5
2018-Aug-14 02:58N 48°12' W 122°51'916.5
2018-Aug-14 02:24N 48°07' W 122°39'616.0
2018-Aug-14 02:00N 48°01' W 122°36'816.1
2018-Aug-14 01:30N 47°55' W 122°28'816.9
2018-Aug-14 01:01N 47°46' W 122°27'815.6
2018-Aug-14 00:30N 47°38' W 122°27'2 4.9
2018-Aug-14 00:00N 47°38' W 122°23'0 0.0
2018-Aug-13 23:30N 47°38' W 122°23'0 0.0
2018-Aug-13 23:00N 47°38' W 122°23'0 0.0
2018-Aug-13 22:30N 47°38' W 122°23'0 0.0
2018-Aug-13 22:00N 47°38' W 122°23'0 0.0
2018-Aug-13 21:30N 47°38' W 122°23'0 0.0
2018-Aug-13 21:00N 47°38' W 122°23'0 0.0
2018-Aug-13 20:30N 47°38' W 122°23'0 0.0
2018-Aug-13 20:00N 47°38' W 122°23'0 0.0
2018-Aug-13 19:30N 47°38' W 122°23'0 0.0
2018-Aug-13 19:00N 47°38' W 122°23'0 0.0
2018-Aug-13 18:30N 47°38' W 122°23'0 0.0
2018-Aug-13 18:00N 47°38' W 122°23'0 0.0
2018-Aug-13 17:30N 47°38' W 122°23'0 0.0
2018-Aug-13 17:00N 47°38' W 122°23'0 0.0
2018-Aug-13 16:30N 47°38' W 122°23'0 0.0
2018-Aug-13 16:00N 47°38' W 122°23'0 0.0
2018-Aug-13 15:30N 47°38' W 122°23'0 0.0
2018-Aug-13 15:00N 47°38' W 122°23'0 0.0
2018-Aug-13 14:30N 47°38' W 122°23'0 0.0
2018-Aug-13 14:00N 47°38' W 122°23'0 0.4
2018-Aug-13 13:30N 47°37' W 122°23'3 6.7
2018-Aug-13 13:00N 47°39' W 122°27'612.5
2018-Aug-13 12:30N 47°45' W 122°27'612.0
2018-Aug-13 12:00N 47°51' W 122°29'510.9
2018-Aug-13 11:30N 47°56' W 122°32'611.8
2018-Aug-13 11:00N 48°01' W 122°38'21167.7
2018-Aug-13 11:00N 48°00' W 122°36'714.3 360 / 141019.9 5.4 13.011.112.0
2018-Aug-13 10:30N 48°06' W 122°40'712.1
2018-Aug-13 09:58N 48°11' W 122°48'612.3
2018-Aug-13 09:30N 48°11' W 122°56'611.9
2018-Aug-13 09:00N 48°12' W 123°05'612.3
2018-Aug-13 08:30N 48°11' W 123°14'611.6
2018-Aug-13 08:00N 48°10' W 123°23'4 7.4
2018-Aug-13 07:29N 48°12' W 123°28'3 6.5
2018-Aug-13 07:00N 48°14' W 123°30'3 6.8
2018-Aug-13 06:30N 48°18' W 123°28'4 9.0
2018-Aug-13 06:00N 48°22' W 123°25'3 0.6
2018-Aug-13 00:36N 48°25' W 123°23'0 0.0
2018-Aug-13 00:29N 48°25' W 123°23'0 0.0
2018-Aug-12 21:08N 48°25' W 123°23'0 0.0
2018-Aug-12 20:56N 48°25' W 123°23'0 0.0
2018-Aug-12 20:26N 48°25' W 123°23'0 0.0
2018-Aug-12 19:50N 48°25' W 123°23'0 0.0
2018-Aug-12 19:30N 48°25' W 123°23'1 1.2
2018-Aug-12 19:00N 48°24' W 123°24'510.5
2018-Aug-12 18:30N 48°19' W 123°24'1213.4
2018-Aug-12 17:36N 48°13' W 123°40'215.2
2018-Aug-12 17:29N 48°13' W 123°43'715.1
2018-Aug-12 17:00N 48°14' W 123°54'816.3
2018-Aug-12 16:30N 48°17' W 124°05'816.0
2018-Aug-12 16:00N 48°20' W 124°16'815.7
2018-Aug-12 15:30N 48°23' W 124°27'815.8
2018-Aug-12 15:01N 48°27' W 124°37'815.8
2018-Aug-12 14:30N 48°29' W 124°49'917.2
2018-Aug-12 14:00N 48°29' W 125°02'917.6
2018-Aug-12 13:30N 48°30' W 125°15'917.8
2018-Aug-12 13:00N 48°34' W 125°27'917.5
2018-Aug-12 12:30N 48°38' W 125°39'817.0
2018-Aug-12 12:01N 48°44' W 125°48'816.6
2018-Aug-12 11:30N 48°48' W 125°59'917.5
2018-Aug-12 11:00N 48°53' W 126°10'1019.1
2018-Aug-12 10:30N 48°59' W 126°21'1019.5
2018-Aug-12 10:00N 49°05' W 126°33'1019.1
2018-Aug-12 09:30N 49°10' W 126°45'1019.1
2018-Aug-12 09:00N 49°15' W 126°58'918.4
2018-Aug-12 08:30N 49°20' W 127°11'2113.9
2018-Aug-12 07:00N 49°24' W 127°42'3125.9 310 / 191019.4 5.4 16.013.316.0
2018-Aug-12 05:49N 49°50' W 128°07'718.2
2018-Aug-12 05:27N 49°56' W 128°12'818.5
2018-Aug-12 05:00N 50°01' W 128°21'918.2
2018-Aug-12 04:30N 50°07' W 128°32'918.0
2018-Aug-12 03:59N 50°13' W 128°43'917.8
2018-Aug-12 03:29N 50°19' W 128°53'1518.5
2018-Aug-12 02:41N 50°29' W 129°11'518.7
2018-Aug-12 02:25N 50°32' W 129°17'818.5
2018-Aug-12 02:00N 50°37' W 129°26'2318.1
2018-Aug-12 00:44N 50°53' W 129°52'717.7
2018-Aug-12 00:21N 50°58' W 130°00'618.0
2018-Aug-12 00:00N 51°02' W 130°07'1018.6
2018-Aug-11 23:28N 51°09' W 130°19'918.2
2018-Aug-11 22:59N 51°15' W 130°29'917.9
2018-Aug-11 22:28N 51°21' W 130°39'1417.5
2018-Aug-11 21:41N 51°31' W 130°55'1017.6
2018-Aug-11 21:08N 51°38' W 131°07'518.2
2018-Aug-11 20:52N 51°41' W 131°12'719.2
2018-Aug-11 20:30N 51°46' W 131°21'11717.9
2018-Aug-11 14:00N 53°18' W 133°18'845.0 330 / 221021.010.8 14.012.215.0
2018-Aug-11 13:49N 53°25' W 133°22'2614.1
2018-Aug-11 12:00N 53°48' W 133°42'5819.3 340 / 221020.7 5.4 14.012.214.0
2018-Aug-11 09:00N 54°42' W 134°18'2120.8 330 / 211021.510.8 13.9 15.0
2018-Aug-11 08:00N 55°00' W 134°36'129 8.1 320 / 171021.910.8 14.0 15.0
2018-Aug-10 16:00N 57°06' W 135°24'0 0.0 200 / 71018.310.8 17.0 14.0
2018-Aug-10 15:00N 57°06' W 135°24'1413.7 090 / 51017.910.8 15.0 14.0
2018-Aug-10 14:00N 56°54' W 135°36'2914.5 210 / 41017.610.8 14.0 14.0
2018-Aug-10 12:00N 57°12' W 136°18'1817.7 250 / 131016.110.8 13.9 14.0
2018-Aug-10 11:00N 57°24' W 136°42'2222.1 240 / 151015.110.8 13.9 14.0
2018-Aug-10 10:00N 57°42' W 137°06'1515.4 230 / 181014.010.8 13.9 14.0
2018-Aug-10 09:00N 57°54' W 137°24'7217.9 230 / 151013.010.8 13.6 14.0
2018-Aug-10 05:00N 58°48' W 138°54'3423.0 220 / 61009.810.8 14.0 15.0
2018-Aug-10 03:31N 59°14' W 139°35'217.6
2018-Aug-10 03:23N 59°16' W 139°38'108 8.7
2018-Aug-09 15:00N 59°00' W 143°06'7418.4 330 / 71001.910.8 13.011.114.0
2018-Aug-09 11:00N 58°42' W 145°24'2019.7 320 / 131002.3 5.4 12.511.614.0
2018-Aug-09 10:00N 58°36' W 146°00'1312.5 330 / 151002.6 12.511.614.0
2018-Aug-09 09:00N 58°36' W 146°24'9919.8 310 / 141002.7 5.4 12.511.614.0
2018-Aug-09 04:00N 58°06' W 149°24'2323.0 310 / 211003.210.8 13.0 17.0
2018-Aug-09 03:00N 58°00' W 150°06'76 6.3 300 / 211003.610.8 13.0 17.0
2018-Aug-08 15:00N 57°42' W 152°24'25 8.5 220 / 201003.710.8 15.0 11.0
2018-Aug-08 12:00N 57°54' W 151°42'1111.3 290 / 211002.9 12.010.113.0
2018-Aug-08 11:00N 58°00' W 151°24'8512.2 280 / 221002.8 5.4 12.010.111.0
2018-Aug-08 04:00N 59°24' W 151°54'61 3.4 280 / 29999.610.8 14.0 17.0
2018-Aug-07 10:00N 60°24' W 151°36'94 7.2 200 / 301004.4 5.4 14.010.213.0
2018-Aug-06 21:00N 61°42' W 149°48'   010 / 1821009.010.8 19.011.818.0
Track history (hours):
 
Tides and Currents Weather Stations Pressure Air Temp Water Temp Dewpoint Dewpoint Depression Visibility Wind Speed Wind Dir Waves Ship Positions

Zaandam

Operator: Holland America Line

Last reported at 2018-Aug-16 15:00 UTC. Time now 2018-Aug-16 20:16 UTC.
Position N 57°06' W 134°00'.

Type: Passenger vessel. MMSI: 246442000.

Wind from 190 at 5 knots

Barometer 1018.9 mb
Air temperature 10.0 ° C
Visibility: greater than 10.8 NM
Dewpoint 7.9 ° C
Water temperature 10.0 ° C

Date/timePositionNaut miles runAvg speedWind from/ knotsBaromVisibWave heightAir tempDewpointWater temp
2018-Aug-16 15:00N 57°06' W 134°00'3812.8 190 / 51018.910.8 10.0 7.910.0
2018-Aug-16 12:00N 56°30' W 134°24'10710.7 100 / 31018.510.8 11.510.510.0
2018-Aug-16 02:00N 55°24' W 131°54'1211.9 300 / 281016.610.8 17.0 15.0
2018-Aug-16 01:00N 55°18' W 131°36'16 1.4 320 / 201016.710.8 18.0 14.0
2018-Aug-15 13:52N 55°10' W 131°12'1112.6
2018-Aug-15 13:00N 55°00' W 131°06'325.9 340 / 171017.510.8 13.0 15.0
2018-Aug-15 12:52N 54°57' W 131°08'615.9
2018-Aug-15 12:29N 54°51' W 131°09'918.6
2018-Aug-15 12:00N 54°42' W 131°12'140.8 350 / 121017.310.8 12.9 13.0
2018-Aug-15 11:58N 54°43' W 131°13'715.0
2018-Aug-15 11:30N 54°36' W 131°15'714.9
2018-Aug-15 11:00N 54°29' W 131°12'5343.1
2018-Aug-15 11:00N 54°24' W 131°12'3 7.0 330 / 181017.310.8 12.4 13.0
2018-Aug-15 10:30N 54°23' W 131°06'713.4
2018-Aug-15 10:00N 54°17' W 131°02'296.7
2018-Aug-15 10:00N 54°18' W 131°00'816.5 300 / 231017.110.8 12.3 13.0
2018-Aug-15 09:30N 54°10' W 131°01'714.2
2018-Aug-15 09:00N 54°03' W 131°01'3215.1
2018-Aug-15 09:00N 54°00' W 131°00'4 8.9 300 / 261017.010.8 12.6 13.0
2018-Aug-15 08:31N 53°56' W 130°58'714.7
2018-Aug-15 08:00N 53°49' W 130°56'196.9
2018-Aug-15 08:00N 53°48' W 130°54'714.0 310 / 241017.310.8 13.4 13.0
2018-Aug-15 07:30N 53°41' W 130°54'917.6
2018-Aug-15 07:00N 53°32' W 130°52'917.4
2018-Aug-15 06:30N 53°24' W 130°49'917.5
2018-Aug-15 06:00N 53°16' W 130°44'917.1
2018-Aug-15 05:28N 53°07' W 130°39'7717.1
2018-Aug-15 01:00N 51°54' W 130°00'1416.1 270 / 251015.710.8 16.0 15.0
2018-Aug-15 00:07N 51°40' W 129°55'216.9
2018-Aug-15 00:01N 51°38' W 129°54'2144.5
2018-Aug-15 00:00N 51°36' W 129°54'613.0 280 / 231016.7 5.4 17.0 15.0
2018-Aug-14 23:31N 51°30' W 129°50'816.7
2018-Aug-14 23:00N 51°22' W 129°46'816.6
2018-Aug-14 22:30N 51°14' W 129°43'816.6
2018-Aug-14 22:00N 51°06' W 129°40'816.8
2018-Aug-14 21:31N 50°58' W 129°34'816.8
2018-Aug-14 21:01N 50°50' W 129°31'816.5
2018-Aug-14 20:30N 50°43' W 129°25'816.6
2018-Aug-14 20:00N 50°37' W 129°16'3220.2
2018-Aug-14 20:00N 50°36' W 129°12'612.1 340 / 251018.3 14.513.614.0
2018-Aug-14 19:31N 50°31' W 129°07'816.7
2018-Aug-14 19:01N 50°25' W 128°57'3152.1
2018-Aug-14 19:00N 50°24' W 128°54'612.1 350 / 261017.810.8 13.9 16.0
2018-Aug-14 18:30N 50°19' W 128°48'816.3
2018-Aug-14 18:00N 50°14' W 128°39'3167.1
2018-Aug-14 18:00N 50°12' W 128°36'611.3 340 / 291016.4 5.4 13.0 16.0
2018-Aug-14 17:30N 50°08' W 128°30'816.7
2018-Aug-14 17:00N 50°02' W 128°21'3206.2
2018-Aug-14 17:00N 50°00' W 128°24'916.9 340 / 351015.7 1.1 12.6 13.0
2018-Aug-14 16:27N 49°56' W 128°11'1123.4
2018-Aug-14 16:00N 49°48' W 128°00'321.5 320 / 321015.6 2.2 15.0 15.0
2018-Aug-14 15:52N 49°51' W 127°59'1416.0
2018-Aug-14 15:00N 49°42' W 127°42'2019.6 330 / 401014.6 5.4 15.0 15.0
2018-Aug-14 14:00N 49°30' W 127°18'413.6 320 / 221013.710.8 17.0 15.0
2018-Aug-14 13:41N 49°29' W 127°11'318.0
2018-Aug-14 13:30N 49°27' W 127°08'917.7
2018-Aug-14 13:00N 49°20' W 126°59'4270.4
2018-Aug-14 13:00N 49°18' W 126°54'5 9.7 320 / 211013.710.8 17.0 15.0
2018-Aug-14 12:30N 49°14' W 126°51'917.5
2018-Aug-14 12:00N 49°08' W 126°41'2161.0
2018-Aug-14 12:00N 49°06' W 126°42'918.4 330 / 181013.810.8 17.0 11.0
2018-Aug-14 11:31N 49°03' W 126°30'917.6
2018-Aug-14 11:00N 48°57' W 126°19'3214.3
2018-Aug-14 11:00N 48°54' W 126°18'714.4 330 / 191014.210.8 15.5 13.0
2018-Aug-14 10:31N 48°52' W 126°08'918.7
2018-Aug-14 10:01N 48°47' W 125°56'5283.1
2018-Aug-14 10:00N 48°42' W 125°54'713.5 320 / 131014.510.8 14.9 13.0
2018-Aug-14 09:30N 48°42' W 125°44'919.0
2018-Aug-14 09:00N 48°37' W 125°32'3188.7
2018-Aug-14 09:00N 48°36' W 125°36'1223.9 330 / 161014.610.8 14.1 13.0
2018-Aug-14 08:31N 48°32' W 125°20'1019.3
2018-Aug-14 08:00N 48°31' W 125°05'195.2
2018-Aug-14 08:00N 48°30' W 125°06'1122.1 310 / 91014.710.8 15.1 13.0
2018-Aug-14 07:30N 48°31' W 124°50'1019.7
2018-Aug-14 07:01N 48°29' W 124°36'1019.8
2018-Aug-14 06:31N 48°25' W 124°22'1020.0
2018-Aug-14 06:00N 48°21' W 124°08'1019.8
2018-Aug-14 05:30N 48°18' W 123°54'1019.9
2018-Aug-14 05:01N 48°16' W 123°39'918.7
2018-Aug-14 04:30N 48°13' W 123°26'612.1
2018-Aug-14 04:00N 48°09' W 123°18'1018.4
2018-Aug-14 03:28N 48°13' W 123°05'918.5
2018-Aug-14 02:58N 48°12' W 122°51'916.5
2018-Aug-14 02:24N 48°07' W 122°39'616.0
2018-Aug-14 02:00N 48°01' W 122°36'816.1
2018-Aug-14 01:30N 47°55' W 122°28'816.9
2018-Aug-14 01:01N 47°46' W 122°27'815.6
2018-Aug-14 00:30N 47°38' W 122°27'2 4.9
2018-Aug-14 00:00N 47°38' W 122°23'0 0.0
2018-Aug-13 23:30N 47°38' W 122°23'0 0.0
2018-Aug-13 23:00N 47°38' W 122°23'0 0.0
2018-Aug-13 22:30N 47°38' W 122°23'0 0.0
2018-Aug-13 22:00N 47°38' W 122°23'0 0.0
2018-Aug-13 21:30N 47°38' W 122°23'0 0.0
2018-Aug-13 21:00N 47°38' W 122°23'0 0.0
2018-Aug-13 20:30N 47°38' W 122°23'0 0.0
2018-Aug-13 20:00N 47°38' W 122°23'0 0.0
2018-Aug-13 19:30N 47°38' W 122°23'0 0.0
2018-Aug-13 19:00N 47°38' W 122°23'0 0.0
2018-Aug-13 18:30N 47°38' W 122°23'0 0.0
2018-Aug-13 18:00N 47°38' W 122°23'0 0.0
2018-Aug-13 17:30N 47°38' W 122°23'0 0.0
2018-Aug-13 17:00N 47°38' W 122°23'0 0.0
2018-Aug-13 16:30N 47°38' W 122°23'0 0.0
2018-Aug-13 16:00N 47°38' W 122°23'0 0.0
2018-Aug-13 15:30N 47°38' W 122°23'0 0.0
2018-Aug-13 15:00N 47°38' W 122°23'0 0.0
2018-Aug-13 14:30N 47°38' W 122°23'0 0.0
2018-Aug-13 14:00N 47°38' W 122°23'0 0.4
2018-Aug-13 13:30N 47°37' W 122°23'3 6.7
2018-Aug-13 13:00N 47°39' W 122°27'612.5
2018-Aug-13 12:30N 47°45' W 122°27'612.0
2018-Aug-13 12:00N 47°51' W 122°29'510.9
2018-Aug-13 11:30N 47°56' W 122°32'611.8
2018-Aug-13 11:00N 48°01' W 122°38'21167.7
2018-Aug-13 11:00N 48°00' W 122°36'714.3 360 / 141019.9 5.4 13.011.112.0
2018-Aug-13 10:30N 48°06' W 122°40'712.1
2018-Aug-13 09:58N 48°11' W 122°48'612.3
2018-Aug-13 09:30N 48°11' W 122°56'611.9
2018-Aug-13 09:00N 48°12' W 123°05'612.3
2018-Aug-13 08:30N 48°11' W 123°14'611.6
2018-Aug-13 08:00N 48°10' W 123°23'4 7.4
2018-Aug-13 07:29N 48°12' W 123°28'3 6.5
2018-Aug-13 07:00N 48°14' W 123°30'3 6.8
2018-Aug-13 06:30N 48°18' W 123°28'4 9.0
2018-Aug-13 06:00N 48°22' W 123°25'3 0.6
2018-Aug-13 00:36N 48°25' W 123°23'0 0.0
2018-Aug-13 00:29N 48°25' W 123°23'0 0.0
2018-Aug-12 21:08N 48°25' W 123°23'0 0.0
2018-Aug-12 20:56N 48°25' W 123°23'0 0.0
2018-Aug-12 20:26N 48°25' W 123°23'0 0.0
2018-Aug-12 19:50N 48°25' W 123°23'0 0.0
2018-Aug-12 19:30N 48°25' W 123°23'1 1.2
2018-Aug-12 19:00N 48°24' W 123°24'510.5
2018-Aug-12 18:30N 48°19' W 123°24'1213.4
2018-Aug-12 17:36N 48°13' W 123°40'215.2
2018-Aug-12 17:29N 48°13' W 123°43'715.1
2018-Aug-12 17:00N 48°14' W 123°54'816.3
2018-Aug-12 16:30N 48°17' W 124°05'816.0
2018-Aug-12 16:00N 48°20' W 124°16'815.7
2018-Aug-12 15:30N 48°23' W 124°27'815.8
2018-Aug-12 15:01N 48°27' W 124°37'815.8
2018-Aug-12 14:30N 48°29' W 124°49'917.2
2018-Aug-12 14:00N 48°29' W 125°02'917.6
2018-Aug-12 13:30N 48°30' W 125°15'917.8
2018-Aug-12 13:00N 48°34' W 125°27'917.5
2018-Aug-12 12:30N 48°38' W 125°39'817.0
2018-Aug-12 12:01N 48°44' W 125°48'816.6
2018-Aug-12 11:30N 48°48' W 125°59'917.5
2018-Aug-12 11:00N 48°53' W 126°10'1019.1
2018-Aug-12 10:30N 48°59' W 126°21'1019.5
2018-Aug-12 10:00N 49°05' W 126°33'1019.1
2018-Aug-12 09:30N 49°10' W 126°45'1019.1
2018-Aug-12 09:00N 49°15' W 126°58'918.4
2018-Aug-12 08:30N 49°20' W 127°11'2113.9
2018-Aug-12 07:00N 49°24' W 127°42'3125.9 310 / 191019.4 5.4 16.013.316.0
2018-Aug-12 05:49N 49°50' W 128°07'718.2
2018-Aug-12 05:27N 49°56' W 128°12'818.5
2018-Aug-12 05:00N 50°01' W 128°21'918.2
2018-Aug-12 04:30N 50°07' W 128°32'918.0
2018-Aug-12 03:59N 50°13' W 128°43'917.8
2018-Aug-12 03:29N 50°19' W 128°53'1518.5
2018-Aug-12 02:41N 50°29' W 129°11'518.7
2018-Aug-12 02:25N 50°32' W 129°17'818.5
2018-Aug-12 02:00N 50°37' W 129°26'2318.1
2018-Aug-12 00:44N 50°53' W 129°52'717.7
2018-Aug-12 00:21N 50°58' W 130°00'618.0
2018-Aug-12 00:00N 51°02' W 130°07'1018.6
2018-Aug-11 23:28N 51°09' W 130°19'918.2
2018-Aug-11 22:59N 51°15' W 130°29'917.9
2018-Aug-11 22:28N 51°21' W 130°39'1417.5
2018-Aug-11 21:41N 51°31' W 130°55'1017.6
2018-Aug-11 21:08N 51°38' W 131°07'518.2
2018-Aug-11 20:52N 51°41' W 131°12'719.2
2018-Aug-11 20:30N 51°46' W 131°21'11717.9
2018-Aug-11 14:00N 53°18' W 133°18'845.0 330 / 221021.010.8 14.012.215.0
2018-Aug-11 13:49N 53°25' W 133°22'2614.1
2018-Aug-11 12:00N 53°48' W 133°42'5819.3 340 / 221020.7 5.4 14.012.214.0
2018-Aug-11 09:00N 54°42' W 134°18'2120.8 330 / 211021.510.8 13.9 15.0
2018-Aug-11 08:00N 55°00' W 134°36'129 8.1 320 / 171021.910.8 14.0 15.0
2018-Aug-10 16:00N 57°06' W 135°24'0 0.0 200 / 71018.310.8 17.0 14.0
2018-Aug-10 15:00N 57°06' W 135°24'1413.7 090 / 51017.910.8 15.0 14.0
2018-Aug-10 14:00N 56°54' W 135°36'2914.5 210 / 41017.610.8 14.0 14.0
2018-Aug-10 12:00N 57°12' W 136°18'1817.7 250 / 131016.110.8 13.9 14.0
2018-Aug-10 11:00N 57°24' W 136°42'2222.1 240 / 151015.110.8 13.9 14.0
2018-Aug-10 10:00N 57°42' W 137°06'1515.4 230 / 181014.010.8 13.9 14.0
2018-Aug-10 09:00N 57°54' W 137°24'7217.9 230 / 151013.010.8 13.6 14.0
2018-Aug-10 05:00N 58°48' W 138°54'3423.0 220 / 61009.810.8 14.0 15.0
2018-Aug-10 03:31N 59°14' W 139°35'217.6
2018-Aug-10 03:23N 59°16' W 139°38'108 8.7
2018-Aug-09 15:00N 59°00' W 143°06'7418.4 330 / 71001.910.8 13.011.114.0
2018-Aug-09 11:00N 58°42' W 145°24'2019.7 320 / 131002.3 5.4 12.511.614.0
2018-Aug-09 10:00N 58°36' W 146°00'1312.5 330 / 151002.6 12.511.614.0
2018-Aug-09 09:00N 58°36' W 146°24'9919.8 310 / 141002.7 5.4 12.511.614.0
2018-Aug-09 04:00N 58°06' W 149°24'2323.0 310 / 211003.210.8 13.0 17.0
2018-Aug-09 03:00N 58°00' W 150°06'76 6.3 300 / 211003.610.8 13.0 17.0
2018-Aug-08 15:00N 57°42' W 152°24'25 8.5 220 / 201003.710.8 15.0 11.0
2018-Aug-08 12:00N 57°54' W 151°42'1111.3 290 / 211002.9 12.010.113.0
2018-Aug-08 11:00N 58°00' W 151°24'8512.2 280 / 221002.8 5.4 12.010.111.0
2018-Aug-08 04:00N 59°24' W 151°54'61 3.4 280 / 29999.610.8 14.0 17.0
2018-Aug-07 10:00N 60°24' W 151°36'94 7.2 200 / 301004.4 5.4 14.010.213.0
2018-Aug-06 21:00N 61°42' W 149°48'   010 / 1821009.010.8 19.011.818.0

Dump ship's entire track history